createdAt,value
2022-10-22T00:01:00.429Z,88.53
2022-10-22T00:03:28.200Z,88.57
2022-10-22T00:05:56.208Z,88.92
2022-10-22T00:08:24.014Z,88.06
2022-10-22T00:10:52.769Z,88.94
2022-10-22T00:13:22.607Z,88.57
2022-10-22T00:15:50.494Z,88.79
2022-10-22T00:18:18.470Z,88.47
2022-10-22T00:20:46.271Z,87.71
2022-10-22T00:23:14.010Z,88.80
2022-10-22T00:25:41.721Z,88.31
2022-10-22T00:28:11.424Z,88.99
2022-10-22T00:30:40.513Z,87.92
2022-10-22T00:33:08.231Z,88.77
2022-10-22T00:35:36.234Z,87.94
2022-10-22T00:38:04.261Z,88.06
2022-10-22T00:40:32.412Z,88.12
2022-10-22T00:43:00.108Z,88.17
2022-10-22T00:45:28.938Z,88.72
2022-10-22T00:48:01.717Z,89.09
2022-10-22T00:50:32.626Z,90.26
2022-10-22T00:53:01.491Z,90.76
2022-10-22T00:55:30.748Z,90.78
2022-10-22T00:58:00.895Z,90.35
2022-10-22T01:00:29.078Z,90.98
2022-10-22T01:02:59.012Z,90.32
2022-10-22T01:05:28.420Z,90.60
2022-10-22T01:07:58.486Z,90.67
2022-10-22T01:10:39.974Z,90.08
2022-10-22T01:13:23.047Z,89.90
2022-10-22T01:16:01.769Z,91.51
2022-10-22T01:18:38.612Z,91.44
2022-10-22T01:21:19.762Z,91.41
2022-10-22T01:24:24.638Z,91.22
2022-10-22T01:27:03.767Z,91.15
2022-10-22T01:29:38.467Z,90.00
2022-10-22T01:32:10.838Z,90.08
2022-10-22T01:34:41.381Z,88.85
2022-10-22T01:37:11.513Z,89.23
2022-10-22T01:39:41.379Z,89.78
2022-10-22T01:42:09.112Z,89.18
2022-10-22T01:44:38.196Z,88.98
2022-10-22T01:47:16.802Z,88.17
2022-10-22T01:50:11.136Z,87.60
2022-10-22T01:52:52.348Z,88.54
2022-10-22T01:55:31.030Z,89.21
2022-10-22T01:58:18.982Z,87.82
2022-10-22T02:00:54.959Z,87.93
2022-10-22T02:03:27.815Z,88.74
2022-10-22T02:06:02.888Z,87.83
2022-10-22T02:08:33.785Z,88.52
2022-10-22T02:11:02.430Z,88.53
2022-10-22T02:13:35.995Z,88.85
2022-10-22T02:16:10.666Z,89.09
2022-10-22T02:18:44.345Z,87.66
2022-10-22T02:21:12.482Z,87.07
2022-10-22T02:23:40.522Z,87.20
2022-10-22T02:26:17.724Z,87.23
2022-10-22T02:28:55.029Z,87.58
2022-10-22T02:31:27.166Z,87.14
2022-10-22T02:33:59.291Z,87.11
2022-10-22T02:36:27.406Z,87.01
2022-10-22T02:38:55.939Z,87.09
2022-10-22T02:41:24.458Z,87.75
2022-10-22T02:43:56.969Z,87.23
2022-10-22T02:46:27.186Z,86.84
2022-10-22T02:48:57.124Z,87.97
2022-10-22T02:51:24.797Z,88.32
2022-10-22T02:53:54.913Z,89.31
2022-10-22T02:56:23.050Z,88.51
2022-10-22T02:58:50.772Z,88.90
2022-10-22T03:01:18.591Z,88.68
2022-10-22T03:03:47.702Z,88.56
2022-10-22T03:06:15.475Z,88.38
2022-10-22T03:08:46.772Z,88.49
2022-10-22T03:11:14.782Z,88.36
2022-10-22T03:13:42.506Z,89.21
2022-10-22T03:16:10.298Z,88.80
2022-10-22T03:18:38.018Z,88.06
2022-10-22T03:21:11.020Z,87.99
2022-10-22T03:23:40.306Z,88.42
2022-10-22T03:26:09.306Z,87.97
2022-10-22T03:28:37.985Z,88.34
2022-10-22T03:31:05.780Z,88.95
2022-10-22T03:33:33.516Z,89.03
2022-10-22T03:36:01.913Z,88.27
2022-10-22T03:38:31.692Z,88.71
2022-10-22T03:40:59.799Z,88.24
2022-10-22T03:43:28.326Z,88.23
2022-10-22T03:45:58.435Z,88.44
2022-10-22T03:48:26.176Z,88.46
2022-10-22T03:50:53.918Z,88.12
2022-10-22T03:53:21.614Z,88.37
2022-10-22T03:55:50.743Z,87.91
2022-10-22T03:58:18.534Z,88.59
2022-10-22T04:00:46.266Z,88.85
2022-10-22T04:03:13.949Z,89.36
2022-10-22T04:05:41.899Z,89.67
2022-10-22T04:08:09.965Z,88.77
2022-10-22T04:10:38.003Z,88.32
2022-10-22T04:13:07.350Z,88.28
2022-10-22T04:15:37.304Z,87.71
2022-10-22T04:18:05.994Z,88.69
2022-10-22T04:20:34.034Z,87.99
2022-10-22T04:23:02.127Z,87.83
2022-10-22T04:25:30.371Z,87.43
2022-10-22T04:27:58.419Z,87.80
2022-10-22T04:30:28.459Z,87.58
2022-10-22T04:32:56.333Z,87.44
2022-10-22T04:37:57.192Z,87.67
2022-10-22T04:40:25.001Z,89.46
2022-10-22T04:42:52.712Z,89.23
2022-10-22T04:45:20.398Z,91.51
2022-10-22T04:47:49.743Z,92.14
2022-10-22T04:50:17.625Z,92.83
2022-10-22T04:52:45.456Z,92.99
2022-10-22T04:55:13.203Z,93.04
2022-10-22T04:57:41.095Z,92.21
2022-10-22T05:00:10.134Z,93.29
2022-10-22T05:02:37.888Z,92.08
2022-10-22T05:05:07.356Z,91.43
2022-10-22T05:07:37.100Z,95.63
2022-10-22T05:10:05.506Z,95.03
2022-10-22T05:12:36.351Z,93.22
2022-10-22T05:15:04.258Z,92.19
2022-10-22T05:17:31.944Z,90.45
2022-10-22T05:19:59.668Z,90.06
2022-10-22T05:22:28.895Z,90.28
2022-10-22T05:24:56.835Z,89.79
2022-10-22T05:27:25.470Z,89.86
2022-10-22T05:29:53.227Z,91.46
2022-10-22T05:32:20.944Z,90.90
2022-10-22T05:34:48.630Z,90.01
2022-10-22T05:37:16.370Z,89.60
2022-10-22T05:39:45.417Z,89.18
2022-10-22T05:42:13.213Z,89.83
2022-10-22T05:44:40.988Z,89.91
2022-10-22T05:47:10.030Z,90.72
2022-10-22T05:49:38.209Z,90.17
2022-10-22T05:52:06.251Z,89.96
2022-10-22T05:54:34.234Z,90.56
2022-10-22T05:57:03.431Z,90.05
2022-10-22T05:59:31.348Z,89.82
2022-10-22T06:01:59.213Z,89.85
2022-10-22T06:04:29.331Z,89.62
2022-10-22T06:06:57.390Z,89.26
2022-10-22T06:09:28.323Z,91.56
2022-10-22T06:11:57.065Z,93.22
2022-10-22T06:14:27.329Z,93.96
2022-10-22T06:16:55.791Z,92.85
2022-10-22T06:19:25.674Z,94.37
2022-10-22T06:21:54.098Z,98.38
2022-10-22T06:24:21.944Z,96.80
2022-10-22T06:26:50.637Z,94.69
2022-10-22T06:29:18.455Z,93.60
2022-10-22T06:31:47.666Z,93.25
2022-10-22T06:34:18.735Z,93.34
2022-10-22T06:36:47.340Z,92.04
2022-10-22T06:39:16.957Z,91.47
2022-10-22T06:41:44.678Z,91.07
2022-10-22T06:44:20.516Z,91.70
2022-10-22T06:46:52.749Z,95.43
2022-10-22T06:49:21.748Z,95.86
2022-10-22T06:51:51.236Z,95.44
2022-10-22T06:54:19.203Z,96.08
2022-10-22T06:56:46.919Z,95.31
2022-10-22T06:59:14.668Z,95.34
2022-10-22T07:01:42.991Z,92.34
2022-10-22T07:04:12.330Z,90.98
2022-10-22T07:06:40.352Z,90.90
2022-10-22T07:09:08.237Z,92.85
2022-10-22T07:11:41.191Z,92.34
2022-10-22T07:14:09.502Z,91.11
2022-10-22T07:16:37.817Z,90.17
2022-10-22T07:19:06.660Z,90.74
2022-10-22T07:21:36.045Z,90.02
2022-10-22T07:24:03.807Z,88.61
2022-10-22T07:26:32.681Z,87.39
2022-10-22T07:29:01.049Z,93.10
2022-10-22T07:31:28.984Z,94.28
2022-10-22T07:33:59.400Z,95.02
2022-10-22T07:36:27.371Z,94.70
2022-10-22T07:38:58.506Z,93.33
2022-10-22T07:41:27.474Z,92.56
2022-10-22T07:43:55.306Z,90.81
2022-10-22T07:46:23.915Z,90.17
2022-10-22T07:48:54.034Z,89.06
2022-10-22T07:51:21.959Z,88.75
2022-10-22T07:53:49.649Z,88.68
2022-10-22T07:56:21.042Z,88.30
2022-10-22T07:58:48.801Z,88.03
2022-10-22T08:01:16.617Z,87.01
2022-10-22T08:03:44.697Z,85.98
2022-10-22T08:06:14.643Z,84.78
2022-10-22T08:08:43.401Z,84.11
2022-10-22T08:11:11.482Z,82.79
2022-10-22T08:13:45.083Z,80.07
2022-10-22T08:16:13.543Z,77.01
2022-10-22T08:18:41.265Z,79.44
2022-10-22T08:21:09.055Z,79.64
2022-10-22T08:23:38.968Z,79.81
2022-10-22T08:26:07.232Z,78.62
2022-10-22T08:28:37.050Z,78.37
2022-10-22T08:31:09.473Z,78.54
2022-10-22T08:33:38.725Z,77.67
2022-10-22T08:36:07.214Z,73.63
2022-10-22T08:38:35.243Z,73.01
2022-10-22T08:41:10.182Z,72.75
2022-10-22T08:44:02.815Z,73.56
2022-10-22T08:46:48.385Z,72.54
2022-10-22T08:49:22.547Z,73.27
2022-10-22T08:51:50.625Z,74.33
2022-10-22T08:54:26.318Z,71.97
2022-10-22T08:57:10.876Z,71.84
2022-10-22T08:59:46.767Z,70.82
2022-10-22T09:02:31.547Z,70.23
2022-10-22T09:05:11.447Z,70.09
2022-10-22T09:07:43.049Z,70.14
2022-10-22T09:10:13.602Z,70.36
2022-10-22T09:12:41.740Z,68.11
2022-10-22T09:15:14.848Z,68.81
2022-10-22T09:17:57.678Z,68.42
2022-10-22T09:20:34.184Z,67.86
2022-10-22T09:23:17.673Z,67.69
2022-10-22T09:25:46.850Z,67.51
2022-10-22T09:28:17.349Z,68.11
2022-10-22T09:30:45.714Z,68.73
2022-10-22T09:33:21.323Z,66.93
2022-10-22T09:35:54.004Z,67.17
2022-10-22T09:38:32.276Z,65.18
2022-10-22T09:41:03.714Z,66.21
2022-10-22T09:43:35.974Z,67.16
2022-10-22T09:46:08.686Z,65.68
2022-10-22T09:48:42.586Z,64.02
2022-10-22T09:51:16.352Z,64.07
2022-10-22T09:53:46.029Z,64.10
2022-10-22T09:56:22.628Z,64.76
2022-10-22T09:58:51.880Z,63.27
2022-10-22T10:01:23.082Z,63.39
2022-10-22T10:03:52.178Z,61.41
2022-10-22T10:06:21.446Z,63.37
2022-10-22T10:08:50.310Z,61.84
2022-10-22T10:11:29.420Z,59.72
2022-10-22T10:14:10.168Z,62.73
2022-10-22T10:16:46.823Z,59.76
2022-10-22T10:19:34.697Z,58.21
2022-10-22T10:22:11.493Z,59.04
2022-10-22T10:24:58.972Z,58.98
2022-10-22T10:27:32.021Z,58.49
2022-10-22T10:30:03.767Z,59.08
2022-10-22T10:32:53.848Z,57.72
2022-10-22T10:35:27.775Z,58.15
2022-10-22T10:38:10.318Z,57.85
2022-10-22T10:40:45.949Z,56.81
2022-10-22T10:43:18.145Z,59.02
2022-10-22T10:45:55.975Z,56.75
2022-10-22T10:48:37.977Z,59.79
2022-10-22T10:51:24.964Z,59.31
2022-10-22T10:54:15.600Z,56.67
2022-10-22T10:56:51.514Z,57.10
2022-10-22T10:59:30.336Z,56.25
2022-10-22T11:02:16.468Z,54.88
2022-10-22T11:05:05.863Z,55.26
2022-10-22T11:07:41.259Z,56.59
2022-10-22T11:10:20.656Z,58.84
2022-10-22T11:17:09.499Z,54.33
2022-10-22T11:19:51.679Z,56.18
2022-10-22T11:22:27.330Z,52.76
2022-10-22T11:25:02.373Z,51.76
2022-10-22T11:27:37.081Z,53.41
2022-10-22T11:30:10.042Z,54.51
2022-10-22T11:32:39.869Z,54.18
2022-10-22T11:35:12.841Z,54.20
2022-10-22T11:37:41.305Z,53.37
2022-10-22T11:40:17.457Z,52.77
2022-10-22T11:42:50.321Z,55.61
2022-10-22T11:45:35.058Z,55.22
2022-10-22T11:48:15.858Z,53.49
2022-10-22T11:50:50.802Z,51.41
2022-10-22T11:53:31.218Z,53.26
2022-10-22T11:56:22.338Z,52.02
2022-10-22T11:58:53.735Z,50.70
2022-10-22T12:01:28.650Z,55.33
2022-10-22T12:04:18.819Z,54.83
2022-10-22T12:06:56.027Z,57.25
2022-10-22T12:09:26.571Z,58.62
2022-10-22T12:11:55.708Z,57.48
2022-10-22T12:14:26.792Z,57.08
2022-10-22T12:16:58.136Z,58.95
2022-10-22T12:19:30.154Z,60.30
2022-10-22T12:22:00.952Z,55.98
2022-10-22T12:24:34.091Z,53.29
2022-10-22T12:27:03.207Z,51.83
2022-10-22T12:29:33.322Z,51.87
2022-10-22T12:32:05.065Z,53.36
2022-10-22T12:34:32.874Z,54.29
2022-10-22T12:37:00.718Z,53.58
2022-10-22T12:39:29.026Z,54.87
2022-10-22T12:41:58.868Z,54.84
2022-10-22T12:44:28.171Z,56.07
2022-10-22T12:46:57.043Z,56.93
2022-10-22T12:49:32.987Z,55.53
2022-10-22T12:52:03.509Z,55.37
2022-10-22T12:54:35.111Z,54.71
2022-10-22T12:57:03.537Z,55.20
2022-10-22T12:59:36.482Z,52.59
2022-10-22T13:02:11.304Z,52.65
2022-10-22T13:04:39.889Z,52.47
2022-10-22T13:07:21.246Z,53.07
2022-10-22T13:09:59.313Z,52.33
2022-10-22T13:12:29.722Z,50.88
2022-10-22T13:14:58.863Z,51.53
2022-10-22T13:17:41.214Z,52.15
2022-10-22T13:20:19.290Z,50.95
2022-10-22T13:23:00.529Z,51.71
2022-10-22T13:25:31.795Z,48.62
2022-10-22T13:28:02.293Z,50.14
2022-10-22T13:30:34.160Z,52.36
2022-10-22T13:33:04.239Z,52.12
2022-10-22T13:35:35.011Z,52.90
2022-10-22T13:38:03.775Z,50.50
2022-10-22T13:40:31.567Z,50.11
2022-10-22T13:42:59.420Z,51.05
2022-10-22T13:45:27.767Z,48.82
2022-10-22T13:47:57.164Z,50.17
2022-10-22T13:50:25.354Z,49.50
2022-10-22T13:52:55.432Z,50.63
2022-10-22T13:55:25.564Z,50.37
2022-10-22T13:57:56.122Z,49.37
2022-10-22T14:00:27.796Z,48.73
2022-10-22T14:03:00.163Z,49.66
2022-10-22T14:05:28.004Z,50.45
2022-10-22T14:07:57.826Z,50.31
2022-10-22T14:10:26.012Z,51.23
2022-10-22T14:12:54.241Z,51.55
2022-10-22T14:15:24.970Z,50.94
2022-10-22T14:17:57.675Z,49.96
2022-10-22T14:20:30.316Z,50.37
2022-10-22T14:23:08.975Z,51.29
2022-10-22T14:25:37.235Z,50.94
2022-10-22T14:28:05.360Z,52.16
2022-10-22T14:30:33.187Z,52.84
2022-10-22T14:33:01.060Z,52.63
2022-10-22T14:35:30.315Z,52.39
2022-10-22T14:37:58.857Z,51.69
2022-10-22T14:40:26.674Z,51.08
2022-10-22T14:42:54.694Z,52.27
2022-10-22T14:45:24.835Z,52.66
2022-10-22T14:47:54.865Z,52.44
2022-10-22T14:50:23.284Z,51.40
2022-10-22T14:52:52.481Z,51.78
2022-10-22T14:55:21.283Z,52.51
2022-10-22T14:57:49.006Z,53.02
2022-10-22T15:00:19.041Z,53.35
2022-10-22T15:02:47.527Z,54.03
2022-10-22T15:05:17.343Z,53.42
2022-10-22T15:07:45.094Z,52.99
2022-10-22T15:10:14.534Z,52.45
2022-10-22T15:12:42.304Z,53.57
2022-10-22T15:15:11.275Z,54.01
2022-10-22T15:17:39.325Z,52.75
2022-10-22T15:20:08.541Z,53.18
2022-10-22T15:22:36.325Z,54.69
2022-10-22T15:25:07.068Z,54.46
2022-10-22T15:27:37.149Z,54.80
2022-10-22T15:30:05.957Z,55.32
2022-10-22T15:32:34.992Z,56.05
2022-10-22T15:35:02.806Z,55.78
2022-10-22T15:37:30.875Z,55.50
2022-10-22T15:40:00.493Z,55.67
2022-10-22T15:42:28.290Z,56.13
2022-10-22T15:44:59.815Z,55.93
2022-10-22T15:47:29.587Z,56.47
2022-10-22T15:50:02.598Z,57.09
2022-10-22T15:52:31.935Z,58.17
2022-10-22T15:54:59.854Z,59.10
2022-10-22T15:57:31.363Z,59.56
2022-10-22T16:00:00.471Z,60.30
2022-10-22T16:02:28.230Z,61.06
2022-10-22T16:04:56.263Z,61.53
2022-10-22T16:07:27.130Z,62.55
2022-10-22T16:09:57.026Z,62.80
2022-10-22T16:12:25.126Z,63.18
2022-10-22T16:14:53.376Z,63.83
2022-10-22T16:17:23.187Z,63.70
2022-10-22T16:19:51.054Z,63.50
2022-10-22T16:22:21.324Z,63.67
2022-10-22T16:24:49.235Z,64.71
2022-10-22T16:27:16.930Z,64.44
2022-10-22T16:29:44.673Z,64.74
2022-10-22T16:32:13.234Z,64.49
2022-10-22T16:34:42.333Z,64.77
2022-10-22T16:37:10.591Z,65.25
2022-10-22T16:39:38.771Z,65.20
2022-10-22T16:42:07.203Z,65.60
2022-10-22T16:44:37.317Z,66.32
2022-10-22T16:47:05.117Z,66.01
2022-10-22T16:49:32.892Z,66.46
2022-10-22T16:52:02.074Z,66.92
2022-10-22T16:54:29.910Z,67.66
2022-10-22T16:56:57.657Z,67.73
2022-10-22T16:59:25.517Z,68.10
2022-10-22T17:01:54.489Z,68.65
2022-10-22T17:04:23.540Z,69.60
2022-10-22T17:06:51.482Z,69.60
2022-10-22T17:09:20.994Z,69.95
2022-10-22T17:11:49.145Z,70.78
2022-10-22T17:14:17.050Z,71.23
2022-10-22T17:16:45.151Z,71.32
2022-10-22T17:19:15.806Z,73.45
2022-10-22T17:21:44.063Z,76.50
2022-10-22T17:24:11.829Z,75.17
2022-10-22T17:26:41.697Z,76.90
2022-10-22T17:29:09.556Z,75.49
2022-10-22T17:31:39.245Z,74.60
2022-10-22T17:34:12.078Z,74.34
2022-10-22T17:36:41.936Z,74.72
2022-10-22T17:39:12.622Z,75.25
2022-10-22T17:41:41.730Z,75.38
2022-10-22T17:44:10.079Z,75.74
2022-10-22T17:46:39.241Z,75.56
2022-10-22T17:49:13.349Z,77.48
2022-10-22T17:51:41.574Z,77.22
2022-10-22T17:54:10.227Z,77.77
2022-10-22T17:56:40.013Z,77.61
2022-10-22T17:59:10.697Z,78.91
2022-10-22T18:01:43.411Z,78.79
2022-10-22T18:04:14.193Z,78.53
2022-10-22T18:06:42.040Z,78.85
2022-10-22T18:09:15.738Z,79.24
2022-10-22T18:11:46.523Z,79.64
2022-10-22T18:14:15.702Z,79.92
2022-10-22T18:16:43.424Z,79.57
2022-10-22T18:19:12.037Z,80.65
2022-10-22T18:21:42.110Z,82.16
2022-10-22T18:24:10.778Z,81.72
2022-10-22T18:26:38.592Z,82.70
2022-10-22T18:29:06.301Z,80.46
2022-10-22T18:31:35.444Z,79.52
2022-10-22T18:34:03.209Z,80.96
2022-10-22T18:36:30.976Z,80.29
2022-10-22T18:39:00.539Z,79.97
2022-10-22T18:41:29.912Z,79.35
2022-10-22T18:43:59.282Z,79.46
2022-10-22T18:46:28.011Z,78.98
2022-10-22T18:48:59.942Z,78.72
2022-10-22T18:51:30.599Z,79.88
2022-10-22T18:54:05.302Z,79.20
2022-10-22T18:56:40.036Z,78.66
2022-10-22T18:59:08.235Z,78.83
2022-10-22T19:01:37.979Z,77.73
2022-10-22T19:04:07.435Z,77.49
2022-10-22T19:06:37.104Z,77.16
2022-10-22T19:09:05.813Z,77.59
2022-10-22T19:11:33.711Z,77.31
2022-10-22T19:14:01.535Z,77.29
2022-10-22T19:16:29.485Z,77.02
2022-10-22T19:19:02.026Z,77.60
2022-10-22T19:21:31.235Z,78.54
2022-10-22T19:24:01.163Z,79.05
2022-10-22T19:26:30.646Z,78.02
2022-10-22T19:29:01.231Z,78.69
2022-10-22T19:31:31.415Z,78.52
2022-10-22T19:34:00.347Z,78.28
2022-10-22T19:36:30.062Z,78.03
2022-10-22T19:39:00.086Z,77.75
2022-10-22T19:41:29.845Z,77.51
2022-10-22T19:44:01.311Z,77.09
2022-10-22T19:46:30.306Z,79.34
2022-10-22T19:48:58.078Z,80.46
2022-10-22T19:51:29.594Z,81.67
2022-10-22T19:54:03.810Z,81.52
2022-10-22T19:56:32.665Z,81.51
2022-10-22T19:59:00.693Z,80.81
2022-10-22T20:01:28.952Z,80.04
2022-10-22T20:03:56.723Z,78.99
2022-10-22T20:06:24.717Z,78.78
2022-10-22T20:08:55.936Z,78.38
2022-10-22T20:11:27.585Z,78.44
2022-10-22T20:13:56.528Z,78.45
2022-10-22T20:16:28.331Z,78.06
2022-10-22T20:18:56.553Z,78.12
2022-10-22T20:21:24.346Z,78.11
2022-10-22T20:23:54.368Z,77.87
2022-10-22T20:26:23.829Z,78.05
2022-10-22T20:28:53.273Z,78.25
2022-10-22T20:31:24.023Z,78.67
2022-10-22T20:33:52.257Z,78.50
2022-10-22T20:36:22.272Z,78.99
2022-10-22T20:38:50.594Z,78.81
2022-10-22T20:41:20.710Z,78.60
2022-10-22T20:43:50.747Z,79.20
2022-10-22T20:46:22.998Z,79.01
2022-10-22T20:48:52.726Z,79.13
2022-10-22T20:51:20.556Z,78.82
2022-10-22T20:53:48.309Z,78.54
2022-10-22T20:56:17.600Z,78.19
2022-10-22T20:58:48.472Z,78.16
2022-10-22T21:01:21.370Z,78.38
2022-10-22T21:03:51.781Z,79.05
2022-10-22T21:06:20.939Z,78.94
2022-10-22T21:08:48.895Z,79.25
2022-10-22T21:11:16.801Z,78.75
2022-10-22T21:13:44.656Z,78.38
2022-10-22T21:16:14.588Z,78.53
2022-10-22T21:18:42.595Z,79.04
2022-10-22T21:21:12.368Z,79.95
2022-10-22T21:23:41.020Z,80.30
2022-10-22T21:26:09.204Z,80.38
2022-10-22T21:28:37.783Z,80.36
2022-10-22T21:31:07.620Z,79.84
2022-10-22T21:33:36.799Z,80.32
2022-10-22T21:36:05.677Z,80.11
2022-10-22T21:38:35.863Z,83.34
2022-10-22T21:41:05.625Z,82.73
2022-10-22T21:43:37.538Z,82.32
2022-10-22T21:46:08.059Z,82.36
2022-10-22T21:48:36.719Z,83.30
2022-10-22T21:51:08.707Z,82.83
2022-10-22T21:53:38.592Z,82.29
2022-10-22T21:56:07.757Z,84.85
2022-10-22T21:58:36.126Z,85.08
2022-10-22T22:01:04.608Z,84.15
2022-10-22T22:03:32.524Z,83.60
2022-10-22T22:06:01.158Z,82.97
2022-10-22T22:08:29.459Z,82.64
2022-10-22T22:11:04.166Z,82.22
2022-10-22T22:13:32.482Z,82.45
2022-10-22T22:16:01.866Z,81.69
2022-10-22T22:18:30.264Z,83.01
2022-10-22T22:20:58.071Z,83.24
2022-10-22T22:23:27.607Z,82.48
2022-10-22T22:25:59.484Z,85.08
2022-10-22T22:28:30.151Z,86.36
2022-10-22T22:30:58.533Z,86.15
2022-10-22T22:33:26.405Z,84.86
2022-10-22T22:35:54.197Z,84.90
2022-10-22T22:38:21.968Z,84.22
2022-10-22T22:40:49.754Z,83.50
2022-10-22T22:43:17.505Z,82.41
2022-10-22T22:45:48.923Z,82.24
2022-10-22T22:48:16.633Z,82.06
2022-10-22T22:50:44.342Z,81.75
2022-10-22T22:53:12.036Z,84.10
2022-10-22T22:55:39.844Z,86.37
2022-10-22T22:58:07.560Z,87.64
2022-10-22T23:00:35.397Z,87.13
2022-10-22T23:03:05.167Z,86.87
2022-10-22T23:05:32.903Z,86.01
2022-10-22T23:08:00.662Z,86.79
2022-10-22T23:10:28.444Z,85.72
2022-10-22T23:12:58.257Z,85.12
2022-10-22T23:15:25.984Z,84.93
2022-10-22T23:17:53.722Z,84.40
2022-10-22T23:20:22.768Z,84.24
2022-10-22T23:22:50.482Z,84.35
2022-10-22T23:25:18.209Z,87.00
2022-10-22T23:27:45.955Z,88.14
2022-10-22T23:30:15.760Z,89.07
2022-10-22T23:32:43.541Z,90.71
2022-10-22T23:35:11.269Z,90.51
2022-10-22T23:37:40.571Z,88.89
2022-10-22T23:40:09.603Z,87.80
2022-10-22T23:45:08.152Z,87.47
2022-10-22T23:47:36.500Z,86.96
2022-10-22T23:50:04.432Z,87.23
2022-10-22T23:52:32.129Z,88.37
2022-10-22T23:55:03.496Z,89.13
2022-10-22T23:57:31.301Z,90.83
